Главная страница
METAR-TAF:

METAR-TAF

Аэропорты :

Gamvik, Норвегия

широта: 71-02N, долгота: 027-50E, высота над уровнем моря: 1 м

Текущие метеонаблюдения

Эта сводка был подготовлена 43 минут назад, в 14:50 UTC
Ветер 6 Узел от северный
Температура 8°C
Влажность 87%
Давление 1014 hPa
Видимость 10 км и более

METAR: ENMH 221450Z AUTO 36006KT 9999 OVC011/// 08/06 Q1014

Время: 17:33 (15:33 UTC)

Прогноз

Эта сводка был подготовлена 25 часа и 33 минут назад, в 14:00 UTC
Прогноз действительный с 21-го 15 UTC до 21-го 22 UTC
Ветер 6 Узел от восточный
Видимость 10 км и более
небольшая облачность на высоте 1400 фута
Рассеянная облачность на высоте 4000 фута
Вероятность 40% :
временами
С 21-го 15 UTC до 21-го 22 UTC
Рассеянная облачность на высоте 900 фута
изменения
С 21-го 18 UTC до 21-го 20 UTC
Ветер 10 Узел от северный

TAF: ENMH 211400Z 2115/2122 09006KT 9999 FEW014 BKN040 PROB40 TEMPO 2115/2122 BKN009 BECMG 2118/2120 01010KT

Метеонаблюдения и прогнозы для более 4000 аэропортов (сводки METAR и TAF).

Имеющиеся станции представлены на карте желтыми и красными точками.

Чтобы увидеть название станции, наведите на нее мышь.

Затем щелкните, чтобы увидеть метеонаблюдения и метеопрогнозы.

Управление картой: чтобы увеличить масштаб, щелкните зеленые кнопки с черным крестиком; чтобы уменьшить масштаб, щелкните зеленую кнопку с тире; для просмотра соседних карт щелкайте зеленые стрелки.


METAR-TAF: